PWSweather.com
Personal Weather Stations
Station Observations
WHITEHV
Whitehorse, YK y1a5w5

Whitehorse, YK y1a5w5

Lat: 60.829, Lon: -135.194

Elevation: 2165

Station Type: DAVIS VANTAGE PRO 2

Latest ConditionsUpdated 11:15:01 AM PST Thursday, Nov 27, 2014
Currently Today's Max Today's Min Today's Average
Temperature 4.4°F-15.3°C 13.8°F-10.1°C 3.9°F-15.6°C 9.0°F-12.8°C
Dew Point 0.4°F-17.6°C 10.6°F-11.9°C -0.5°F-18.1°C 5.1°F-14.9°C
Winds Calm Calm 1.2 mph N1.9 kmh N - 0.1 mph 0.2 kmh
Wind Gusts -- 4.6 mph7.4 kmh - -
Humidity 83% 87% 80% 84%
Pressure 30.61 in1036.6 mb 30.62 in1036.9 mb 30.57 in1035.2 mb -
Hour Temp Dew Point Humidity Winds Wind Gusts Pressure Precip Precip Rate Daily Precip Total
11:15 AM 4.4°F-15.3°C 0.4°F-17.6°C 83% Calm Calm -- 30.61 in1036.6 mb 0.00 in0.0 mm 0.00 in/hr0.0 mm/hr 0.00 in0.0 mm
11:00 AM 4.1°F-15.5°C 0.1°F-17.7°C 83% Calm Calm -- 30.62 in1036.9 mb 0.00 in0.0 mm 0.00 in/hr0.0 mm/hr 0.00 in0.0 mm
10:45 AM 3.9°F-15.6°C -0.4°F-18.0°C 82% Calm Calm -- 30.62 in1036.9 mb 0.00 in0.0 mm 0.00 in/hr0.0 mm/hr 0.00 in0.0 mm
10:30 AM 4.0°F-15.6°C -0.5°F-18.1°C 81% Calm Calm -- 30.62 in1036.9 mb 0.00 in0.0 mm 0.00 in/hr0.0 mm/hr 0.00 in0.0 mm
10:15 AM 4.4°F-15.3°C -0.4°F-18.0°C 80% Calm Calm -- 30.62 in1036.9 mb 0.00 in0.0 mm 0.00 in/hr0.0 mm/hr 0.00 in0.0 mm
10:00 AM 5.0°F-15.0°C 0.5°F-17.5°C 81% Calm Calm -- 30.61 in1036.6 mb 0.00 in0.0 mm 0.00 in/hr0.0 mm/hr 0.00 in0.0 mm
09:45 AM 5.6°F-14.7°C 1.3°F-17.1°C 82% Calm Calm -- 30.61 in1036.6 mb 0.00 in0.0 mm 0.00 in/hr0.0 mm/hr 0.00 in0.0 mm
09:30 AM 5.9°F-14.5°C 1.9°F-16.7°C 83% Calm Calm -- 30.61 in1036.6 mb 0.00 in0.0 mm 0.00 in/hr0.0 mm/hr 0.00 in0.0 mm
09:15 AM 6.1°F-14.4°C 2.0°F-16.7°C 83% Calm Calm 1.2 mph1.9 kmh 30.61 in1036.6 mb 0.00 in0.0 mm 0.00 in/hr0.0 mm/hr 0.00 in0.0 mm
09:00 AM 6.3°F-14.3°C 2.2°F-16.6°C 83% Calm Calm -- 30.61 in1036.6 mb 0.00 in0.0 mm 0.00 in/hr0.0 mm/hr 0.00 in0.0 mm
08:45 AM 6.2°F-14.3°C 2.4°F-16.4°C 84% Calm Calm 2.3 mph3.7 kmh 30.60 in1036.2 mb 0.00 in0.0 mm 0.00 in/hr0.0 mm/hr 0.00 in0.0 mm
08:30 AM 6.0°F-14.4°C 2.0°F-16.7°C 83% Calm Calm 1.2 mph1.9 kmh 30.60 in1036.2 mb 0.00 in0.0 mm 0.00 in/hr0.0 mm/hr 0.00 in0.0 mm
08:15 AM 6.0°F-14.4°C 1.7°F-16.8°C 82% Calm Calm -- 30.60 in1036.2 mb 0.00 in0.0 mm 0.00 in/hr0.0 mm/hr 0.00 in0.0 mm
08:00 AM 6.4°F-14.2°C 1.8°F-16.8°C 81% Calm Calm -- 30.60 in1036.2 mb 0.00 in0.0 mm 0.00 in/hr0.0 mm/hr 0.00 in0.0 mm
07:45 AM 7.3°F-13.7°C 2.9°F-16.2°C 82% Calm Calm -- 30.59 in1035.9 mb 0.00 in0.0 mm 0.00 in/hr0.0 mm/hr 0.00 in0.0 mm
07:30 AM 8.2°F-13.2°C 4.1°F-15.5°C 83% Calm Calm -- 30.59 in1035.9 mb 0.00 in0.0 mm 0.00 in/hr0.0 mm/hr 0.00 in0.0 mm
07:15 AM 8.6°F-13.0°C 4.8°F-15.1°C 84% Calm Calm 2.3 mph3.7 kmh 30.59 in1035.9 mb 0.00 in0.0 mm 0.00 in/hr0.0 mm/hr 0.00 in0.0 mm
07:00 AM 8.6°F-13.0°C 4.8°F-15.1°C 84% Calm Calm 2.3 mph3.7 kmh 30.59 in1035.9 mb 0.00 in0.0 mm 0.00 in/hr0.0 mm/hr 0.00 in0.0 mm
06:45 AM 8.2°F-13.2°C 4.4°F-15.3°C 84% Calm Calm -- 30.59 in1035.9 mb 0.00 in0.0 mm 0.00 in/hr0.0 mm/hr 0.00 in0.0 mm
06:30 AM 8.3°F-13.2°C 4.2°F-15.4°C 83% Calm Calm -- 30.59 in1035.9 mb 0.00 in0.0 mm 0.00 in/hr0.0 mm/hr 0.00 in0.0 mm
06:15 AM 8.8°F-12.9°C 4.7°F-15.2°C 83% Calm Calm 1.2 mph1.9 kmh 30.59 in1035.9 mb 0.00 in0.0 mm 0.00 in/hr0.0 mm/hr 0.00 in0.0 mm
06:00 AM 9.2°F-12.7°C 5.3°F-14.8°C 84% Calm Calm -- 30.59 in1035.9 mb 0.00 in0.0 mm 0.00 in/hr0.0 mm/hr 0.00 in0.0 mm
05:45 AM 9.3°F-12.6°C 5.4°F-14.8°C 84% Calm Calm 1.2 mph1.9 kmh 30.59 in1035.9 mb 0.00 in0.0 mm 0.00 in/hr0.0 mm/hr 0.00 in0.0 mm
05:30 AM 9.4°F-12.6°C 5.5°F-14.7°C 84% Calm Calm 1.2 mph1.9 kmh 30.58 in1035.6 mb 0.00 in0.0 mm 0.00 in/hr0.0 mm/hr 0.00 in0.0 mm
05:15 AM 9.5°F-12.5°C 5.6°F-14.7°C 84% Calm Calm 3.5 mph5.6 kmh 30.58 in1035.6 mb 0.00 in0.0 mm 0.00 in/hr0.0 mm/hr 0.00 in0.0 mm
05:00 AM 9.5°F-12.5°C 5.7°F-14.6°C 84% Calm Calm 1.2 mph1.9 kmh 30.58 in1035.6 mb 0.00 in0.0 mm 0.00 in/hr0.0 mm/hr 0.00 in0.0 mm
04:45 AM 9.7°F-12.4°C 6.1°F-14.4°C 85% Calm Calm -- 30.58 in1035.6 mb 0.00 in0.0 mm 0.00 in/hr0.0 mm/hr 0.00 in0.0 mm
04:30 AM 9.8°F-12.3°C 6.2°F-14.3°C 85% Calm Calm 2.3 mph3.7 kmh 30.57 in1035.2 mb 0.00 in0.0 mm 0.00 in/hr0.0 mm/hr 0.00 in0.0 mm
04:15 AM 9.8°F-12.3°C 5.9°F-14.5°C 84% Calm Calm 1.2 mph1.9 kmh 30.57 in1035.2 mb 0.00 in0.0 mm 0.00 in/hr0.0 mm/hr 0.00 in0.0 mm
04:00 AM 10.1°F-12.2°C 6.2°F-14.3°C 84% Calm Calm 1.2 mph1.9 kmh 30.57 in1035.2 mb 0.00 in0.0 mm 0.00 in/hr0.0 mm/hr 0.00 in0.0 mm
03:45 AM 10.4°F-12.0°C 6.8°F-14.0°C 85% Calm Calm -- 30.57 in1035.2 mb 0.00 in0.0 mm 0.00 in/hr0.0 mm/hr 0.00 in0.0 mm
03:30 AM 10.5°F-11.9°C 6.9°F-13.9°C 85% Calm Calm 3.5 mph5.6 kmh 30.57 in1035.2 mb 0.00 in0.0 mm 0.00 in/hr0.0 mm/hr 0.00 in0.0 mm
03:15 AM 10.7°F-11.8°C 7.1°F-13.8°C 85% Calm Calm 2.3 mph3.7 kmh 30.57 in1035.2 mb 0.00 in0.0 mm 0.00 in/hr0.0 mm/hr 0.00 in0.0 mm
03:00 AM 11.0°F-11.7°C 7.4°F-13.7°C 85% 1.2 mph NW1.9 kmh NW 4.6 mph7.4 kmh 30.58 in1035.6 mb 0.00 in0.0 mm 0.00 in/hr0.0 mm/hr 0.00 in0.0 mm
02:45 AM 11.2°F-11.6°C 7.6°F-13.6°C 85% Calm Calm 1.2 mph1.9 kmh 30.58 in1035.6 mb 0.00 in0.0 mm 0.00 in/hr0.0 mm/hr 0.00 in0.0 mm
02:30 AM 11.4°F-11.4°C 7.8°F-13.4°C 85% Calm Calm 2.3 mph3.7 kmh 30.58 in1035.6 mb 0.00 in0.0 mm 0.00 in/hr0.0 mm/hr 0.00 in0.0 mm
02:15 AM 11.6°F-11.3°C 8.0°F-13.3°C 85% 1.2 mph NW1.9 kmh NW 1.2 mph1.9 kmh 30.58 in1035.6 mb 0.00 in0.0 mm 0.00 in/hr0.0 mm/hr 0.00 in0.0 mm
02:00 AM 12.0°F-11.1°C 8.3°F-13.2°C 85% Calm Calm 2.3 mph3.7 kmh 30.58 in1035.6 mb 0.00 in0.0 mm 0.00 in/hr0.0 mm/hr 0.00 in0.0 mm
01:45 AM 12.4°F-10.9°C 8.8°F-12.9°C 85% Calm Calm 2.3 mph3.7 kmh 30.58 in1035.6 mb 0.00 in0.0 mm 0.00 in/hr0.0 mm/hr 0.00 in0.0 mm
01:30 AM 12.7°F-10.7°C 9.3°F-12.6°C 86% 1.2 mph NW1.9 kmh NW 1.2 mph1.9 kmh 30.58 in1035.6 mb 0.00 in0.0 mm 0.00 in/hr0.0 mm/hr 0.00 in0.0 mm
01:15 AM 13.0°F-10.6°C 9.6°F-12.4°C 86% Calm Calm 1.2 mph1.9 kmh 30.58 in1035.6 mb 0.00 in0.0 mm 0.00 in/hr0.0 mm/hr 0.00 in0.0 mm
01:00 AM 13.2°F-10.4°C 9.8°F-12.3°C 86% Calm Calm 1.2 mph1.9 kmh 30.58 in1035.6 mb 0.00 in0.0 mm 0.00 in/hr0.0 mm/hr 0.00 in0.0 mm
12:45 AM 13.4°F-10.3°C 10.0°F-12.2°C 86% Calm Calm 1.2 mph1.9 kmh 30.57 in1035.2 mb 0.00 in0.0 mm 0.00 in/hr0.0 mm/hr 0.00 in0.0 mm
12:30 AM 13.6°F-10.2°C 10.5°F-11.9°C 87% 1.2 mph W1.9 kmh W 2.3 mph3.7 kmh 30.57 in1035.2 mb 0.00 in0.0 mm 0.00 in/hr0.0 mm/hr 0.00 in0.0 mm
12:15 AM 13.7°F-10.2°C 10.5°F-11.9°C 87% Calm Calm 2.3 mph3.7 kmh 30.57 in1035.2 mb 0.00 in0.0 mm 0.00 in/hr0.0 mm/hr 0.00 in0.0 mm
12:00 AM 13.8°F-10.1°C 10.6°F-11.9°C 87% 1.2 mph N1.9 kmh N 1.2 mph1.9 kmh 30.57 in1035.2 mb 0.00 in0.0 mm 0.00 in/hr0.0 mm/hr 0.00 in0.0 mm